Time;durP1;ratioP1;P1;durP2;ratioP2;P2;SDS_P1;SDS_P2;PMS_P1;PMS_P2;Temp;Humidity;BMP_temperature;BMP_pressure;BME280_temperature;BME280_humidity;BME280_pressure;Samples;Min_cycle;Max_cycle;Signal;HPM_P1;HPM_P2
2022/06/03 00:01:49;;;;;;;13.98;9.55;;;14.30;99.90;;;;;;5136676;28;20372;-74
2022/06/03 00:04:40;;;;;;;9.82;8.52;;;14.30;99.90;;;;;;5135521;28;20047;-75
2022/06/03 00:07:31;;;;;;;11.10;9.27;;;14.30;99.90;;;;;;5149357;28;20035;-76
2022/06/03 00:10:28;;;;;;;10.65;9.15;;;14.30;99.90;;;;;;5137955;28;20401;-75
2022/06/03 00:13:49;;;;;;;9.50;8.45;;;14.20;99.90;;;;;;5159562;28;20055;-76
2022/06/03 00:16:42;;;;;;;9.00;8.02;;;14.10;99.90;;;;;;5171816;28;20060;-75
2022/06/03 00:19:43;;;;;;;11.30;8.88;;;14.10;99.90;;;;;;5172709;28;20504;-76
2022/06/03 00:22:40;;;;;;;11.02;8.75;;;14.20;99.90;;;;;;5155056;28;20058;-75
2022/06/03 00:25:35;;;;;;;13.38;8.43;;;14.20;99.90;;;;;;5138797;28;20071;-74
2022/06/03 00:28:25;;;;;;;11.52;9.00;;;14.10;99.90;;;;;;5135536;28;20095;-75
2022/06/03 00:31:07;;;;;;;11.98;9.07;;;14.10;99.90;;;;;;5136628;28;20046;-75
2022/06/03 00:33:42;;;;;;;10.23;8.95;;;14.10;99.90;;;;;;5135901;28;20062;-75
2022/06/03 00:36:39;;;;;;;9.70;7.78;;;14.10;99.90;;;;;;5136726;28;21750;-75
2022/06/03 00:39:36;;;;;;;12.05;8.40;;;14.00;99.90;;;;;;5139126;28;20042;-74
2022/06/03 00:42:29;;;;;;;9.98;8.48;;;14.00;99.90;;;;;;5137394;28;20043;-74
2022/06/03 00:45:08;;;;;;;11.40;9.25;;;13.90;99.90;;;;;;5143762;28;20043;-75
2022/06/03 00:47:40;;;;;;;10.18;9.18;;;13.90;99.90;;;;;;5126848;28;20222;-77
2022/06/03 00:50:34;;;;;;;15.65;9.75;;;13.80;99.90;;;;;;5146962;28;20073;-74
2022/06/03 00:53:36;;;;;;;10.30;9.20;;;13.80;99.90;;;;;;5139479;28;20248;-75
2022/06/03 00:56:17;;;;;;;10.75;9.65;;;13.90;99.90;;;;;;5137849;28;20406;-74
2022/06/03 00:59:28;;;;;;;12.13;9.00;;;13.90;99.90;;;;;;5138289;28;20051;-76
2022/06/03 01:02:09;;;;;;;11.45;8.82;;;13.80;99.90;;;;;;5136105;28;20057;-75
2022/06/03 01:05:06;;;;;;;11.70;9.27;;;13.70;99.90;;;;;;5137754;28;20039;-74
2022/06/03 01:08:05;;;;;;;12.25;9.23;;;13.80;99.90;;;;;;5138096;28;20051;-74
2022/06/03 01:11:14;;;;;;;11.18;8.55;;;13.70;99.90;;;;;;5135820;28;20055;-75
2022/06/03 01:13:54;;;;;;;11.95;9.48;;;13.70;99.90;;;;;;5138767;28;20137;-76
2022/06/03 01:16:45;;;;;;;10.23;8.93;;;13.70;99.90;;;;;;5134288;28;20046;-77
2022/06/03 01:19:37;;;;;;;12.65;10.57;;;13.70;99.90;;;;;;5143599;28;20039;-75
2022/06/03 01:22:48;;;;;;;10.68;9.48;;;13.80;99.90;;;;;;5138104;28;20042;-75
2022/06/03 01:25:35;;;;;;;12.32;9.45;;;13.80;99.90;;;;;;5136535;28;20061;-77
2022/06/03 01:28:37;;;;;;;10.02;9.00;;;13.70;99.90;;;;;;5145287;28;20106;-77
2022/06/03 01:31:37;;;;;;;12.32;9.50;;;13.70;99.90;;;;;;5137611;28;20069;-75
2022/06/03 01:34:13;;;;;;;12.50;11.20;;;13.70;99.90;;;;;;5135198;28;20047;-76
2022/06/03 01:37:03;;;;;;;14.43;9.95;;;13.60;99.90;;;;;;5139063;28;20078;-76
2022/06/03 01:40:06;;;;;;;11.60;10.40;;;13.60;99.90;;;;;;5141098;28;20047;-77
2022/06/03 01:43:16;;;;;;;11.23;9.88;;;13.60;99.90;;;;;;5138414;28;20061;-78
2022/06/03 01:46:10;;;;;;;11.02;9.27;;;13.70;99.90;;;;;;5139638;28;20485;-77
2022/06/03 01:49:07;;;;;;;13.50;9.55;;;13.70;99.90;;;;;;5141090;28;20074;-78
2022/06/03 01:51:52;;;;;;;11.27;9.48;;;13.60;99.90;;;;;;5136616;28;20142;-74
2022/06/03 01:54:30;;;;;;;11.10;9.20;;;13.60;99.90;;;;;;5134555;28;20386;-75
2022/06/03 01:57:24;;;;;;;11.98;9.25;;;13.60;99.90;;;;;;5138307;28;20058;-76
2022/06/03 01:59:59;;;;;;;9.53;8.57;;;13.60;99.90;;;;;;5217946;28;20038;-74
2022/06/03 02:02:56;;;;;;;13.55;9.68;;;13.60;99.90;;;;;;5140024;28;20618;-75
2022/06/03 02:06:08;;;;;;;13.82;10.93;;;13.50;99.90;;;;;;5142199;28;20048;-74
2022/06/03 02:08:56;;;;;;;12.57;8.77;;;13.50;99.90;;;;;;5138527;28;20065;-74
2022/06/03 02:11:52;;;;;;;11.60;9.05;;;13.40;99.90;;;;;;5134131;28;20047;-74
2022/06/03 02:14:55;;;;;;;10.77;9.35;;;13.40;99.90;;;;;;5143417;28;20047;-74
2022/06/03 02:17:58;;;;;;;11.68;9.32;;;13.50;99.90;;;;;;5136937;28;20047;-76
2022/06/03 02:21:05;;;;;;;10.23;8.60;;;13.50;99.90;;;;;;5135716;28;20046;-74
2022/06/03 02:23:44;;;;;;;10.52;8.65;;;13.40;99.90;;;;;;5162701;28;20061;-78
2022/06/03 02:26:35;;;;;;;10.52;9.00;;;13.40;99.90;;;;;;5137399;28;20094;-75
2022/06/03 02:33:22;;;;;;;9.95;8.93;;;13.40;99.90;;;;;;5133040;28;20065;-76
2022/06/03 02:36:32;;;;;;;12.85;10.05;;;13.30;99.90;;;;;;5133509;28;20470;-73
2022/06/03 02:39:23;;;;;;;12.63;10.75;;;13.30;99.90;;;;;;5127620;28;20042;-73
2022/06/03 02:42:10;;;;;;;10.00;9.00;;;13.30;99.90;;;;;;5141548;28;20065;-73
2022/06/03 02:45:03;;;;;;;10.90;9.68;;;13.30;99.90;;;;;;5134122;28;20510;-76
2022/06/03 02:48:26;;;;;;;10.73;9.20;;;13.20;99.90;;;;;;5135856;28;20507;-75
2022/06/03 02:51:17;;;;;;;11.20;8.40;;;13.20;99.90;;;;;;5131844;28;20047;-73
2022/06/03 02:54:16;;;;;;;9.70;8.70;;;13.20;99.90;;;;;;5198663;28;20360;-74
2022/06/03 02:56:54;;;;;;;9.68;8.68;;;13.20;99.90;;;;;;5133337;28;20047;-74
2022/06/03 02:59:55;;;;;;;12.57;9.50;;;13.10;99.90;;;;;;5131188;28;20044;-75
2022/06/03 03:02:56;;;;;;;12.43;9.93;;;13.10;99.90;;;;;;5132482;28;20048;-75
2022/06/03 03:05:57;;;;;;;18.17;9.18;;;13.00;99.90;;;;;;5130587;28;20604;-76
2022/06/03 03:09:13;;;;;;;9.70;8.70;;;13.00;99.90;;;;;;5129855;28;20565;-74
2022/06/03 03:12:07;;;;;;;11.65;8.40;;;13.00;99.90;;;;;;5132774;28;20053;-74
2022/06/03 03:14:52;;;;;;;12.98;8.30;;;12.90;99.90;;;;;;5144430;28;21103;-76
2022/06/03 03:17:48;;;;;;;11.02;9.90;;;12.90;99.90;;;;;;5129644;28;20516;-75
2022/06/03 03:20:45;;;;;;;12.13;10.25;;;12.90;99.90;;;;;;5140897;28;20062;-75
2022/06/03 03:23:46;;;;;;;11.85;9.63;;;12.90;99.90;;;;;;5132869;28;20058;-77
2022/06/03 03:26:45;;;;;;;13.15;9.73;;;12.80;99.90;;;;;;5141295;28;20065;-75
2022/06/03 03:29:23;;;;;;;10.43;9.30;;;12.80;99.90;;;;;;5131782;28;20094;-77
2022/06/03 03:32:24;;;;;;;11.05;8.93;;;12.90;99.90;;;;;;5131482;28;20055;-74
2022/06/03 03:35:15;;;;;;;12.10;8.27;;;12.90;99.90;;;;;;5132453;28;20133;-74
2022/06/03 03:38:25;;;;;;;11.65;10.30;;;12.80;99.90;;;;;;5134407;28;20058;-74
2022/06/03 03:40:57;;;;;;;13.27;8.50;;;12.80;99.90;;;;;;5129644;28;20051;-75
2022/06/03 03:43:44;;;;;;;10.13;8.85;;;12.90;99.90;;;;;;5133014;28;20047;-76
2022/06/03 03:46:44;;;;;;;9.88;8.90;;;12.90;99.90;;;;;;5132091;28;20134;-76
2022/06/03 03:49:41;;;;;;;9.55;8.57;;;12.90;99.90;;;;;;5131069;28;20525;-75
2022/06/03 03:52:39;;;;;;;11.05;9.95;;;13.00;99.90;;;;;;5140786;28;20047;-75
2022/06/03 03:55:46;;;;;;;8.90;8.00;;;13.00;99.90;;;;;;5133327;28;20066;-75
2022/06/03 03:58:56;;;;;;;8.68;7.78;;;13.00;99.90;;;;;;5131292;28;20053;-75
2022/06/03 04:01:53;;;;;;;9.32;7.90;;;13.00;99.90;;;;;;5134117;28;20054;-75
2022/06/03 04:04:38;;;;;;;11.30;9.32;;;13.10;99.90;;;;;;5168403;28;20476;-74
2022/06/03 04:07:33;;;;;;;10.73;9.05;;;13.00;99.90;;;;;;5129213;28;20049;-75
2022/06/03 04:10:43;;;;;;;9.65;7.80;;;13.00;99.90;;;;;;5140081;28;20047;-74
2022/06/03 04:13:54;;;;;;;21.35;8.85;;;13.10;99.90;;;;;;5134310;28;20426;-76
2022/06/03 04:16:48;;;;;;;11.00;8.95;;;13.10;99.90;;;;;;5132923;28;20055;-75
2022/06/03 04:19:34;;;;;;;9.40;8.45;;;13.20;99.90;;;;;;5130271;28;20421;-75
2022/06/03 04:22:15;;;;;;;9.98;8.52;;;13.20;99.90;;;;;;5125852;28;20047;-75
2022/06/03 04:24:51;;;;;;;12.30;8.10;;;13.30;99.90;;;;;;5136949;28;20064;-75
2022/06/03 04:27:56;;;;;;;8.30;7.30;;;13.40;99.90;;;;;;5139626;28;20585;-76
2022/06/03 04:31:06;;;;;;;8.70;7.10;;;13.50;99.90;;;;;;5128868;28;20055;-75
2022/06/03 04:33:52;;;;;;;7.60;6.88;;;13.50;99.90;;;;;;5133359;28;21399;-74
2022/06/03 04:36:37;;;;;;;8.32;7.53;;;13.60;99.90;;;;;;5133743;28;20058;-75
2022/06/03 04:39:38;;;;;;;8.80;7.30;;;13.60;99.90;;;;;;5129475;28;20077;-74
2022/06/03 04:42:17;;;;;;;9.20;6.30;;;13.60;99.90;;;;;;5135481;28;20540;-75
2022/06/03 04:45:12;;;;;;;9.52;7.10;;;13.70;99.90;;;;;;5131225;28;20054;-75
2022/06/03 04:48:15;;;;;;;7.78;6.90;;;13.80;99.90;;;;;;5131975;28;20057;-75
2022/06/03 04:51:33;;;;;;;7.88;7.18;;;13.90;99.90;;;;;;5133202;28;20062;-75
2022/06/03 04:54:16;;;;;;;8.50;7.60;;;14.00;99.90;;;;;;5134392;28;20051;-77
2022/06/03 04:57:26;;;;;;;8.73;7.85;;;14.10;99.90;;;;;;5131735;28;20690;-75
2022/06/03 05:00:08;;;;;;;10.70;7.53;;;14.30;99.90;;;;;;5133862;28;20050;-76
2022/06/03 05:03:14;;;;;;;10.82;8.07;;;14.40;99.90;;;;;;5198082;28;20051;-79
2022/06/03 05:05:55;;;;;;;10.45;8.85;;;14.50;99.90;;;;;;5215016;28;20046;-75
2022/06/03 05:08:59;;;;;;;11.48;9.73;;;14.70;99.90;;;;;;5135639;28;20129;-74
2022/06/03 05:12:08;;;;;;;11.05;8.70;;;14.80;99.90;;;;;;5135539;28;20524;-74
2022/06/03 05:15:14;;;;;;;16.58;10.70;;;15.00;99.90;;;;;;5132339;28;20046;-75
2022/06/03 05:18:03;;;;;;;10.60;9.43;;;15.20;99.90;;;;;;5201363;28;20054;-77
2022/06/03 05:21:22;;;;;;;11.05;9.10;;;15.30;99.90;;;;;;5140113;28;20405;-76
2022/06/03 05:24:13;;;;;;;11.25;9.25;;;15.40;99.90;;;;;;5123990;28;20043;-76
2022/06/03 05:27:08;;;;;;;10.57;8.90;;;15.50;99.90;;;;;;5130874;28;20039;-75
2022/06/03 05:29:53;;;;;;;13.95;9.02;;;15.70;99.90;;;;;;5135871;28;20050;-75
2022/06/03 05:33:01;;;;;;;10.93;8.35;;;15.80;99.90;;;;;;5133366;28;20805;-74
2022/06/03 05:35:39;;;;;;;10.65;8.68;;;15.90;99.90;;;;;;5140645;28;20042;-75
2022/06/03 05:38:34;;;;;;;10.90;8.13;;;16.00;99.90;;;;;;5125563;28;20505;-75
2022/06/03 05:44:18;;;;;;;10.25;6.45;;;16.40;99.90;;;;;;5134164;28;20035;-79
2022/06/03 05:47:06;;;;;;;9.27;7.22;;;16.50;99.90;;;;;;5135425;28;20820;-77
2022/06/03 05:50:04;;;;;;;10.68;6.15;;;16.60;99.90;;;;;;5128693;28;20040;-75
2022/06/03 05:52:47;;;;;;;8.20;5.93;;;16.70;99.90;;;;;;5157777;28;20050;-75
2022/06/03 05:55:40;;;;;;;7.03;6.30;;;16.90;99.90;;;;;;5131424;28;20981;-75
2022/06/03 05:58:34;;;;;;;8.60;6.07;;;17.10;99.90;;;;;;5129611;28;20054;-76
2022/06/03 06:01:32;;;;;;;8.35;5.93;;;17.30;99.90;;;;;;5134346;28;20038;-75
2022/06/03 06:04:15;;;;;;;7.65;5.85;;;17.50;99.90;;;;;;5130028;28;20387;-76
2022/06/03 06:06:56;;;;;;;10.63;5.88;;;17.60;99.90;;;;;;5132996;28;20053;-75
2022/06/03 06:09:34;;;;;;;6.93;5.60;;;17.70;99.90;;;;;;5133143;28;20039;-75
2022/06/03 06:12:29;;;;;;;6.72;4.95;;;17.80;99.90;;;;;;5133072;28;20386;-75
2022/06/03 06:15:27;;;;;;;6.68;4.82;;;17.90;99.90;;;;;;5143557;28;20058;-77
2022/06/03 06:18:08;;;;;;;6.20;5.15;;;18.10;99.90;;;;;;5133287;28;20053;-76
2022/06/03 06:21:18;;;;;;;4.97;4.57;;;18.30;99.90;;;;;;5131829;28;20065;-77
2022/06/03 06:24:08;;;;;;;8.65;5.38;;;18.40;99.90;;;;;;5132911;28;20045;-75
2022/06/03 06:27:28;;;;;;;5.03;4.47;;;18.50;99.90;;;;;;5134998;28;20065;-76
2022/06/03 06:30:25;;;;;;;5.57;4.97;;;18.60;99.90;;;;;;5096956;28;20054;-76
2022/06/03 06:33:48;;;;;;;5.00;4.60;;;18.70;99.90;;;;;;5134240;28;20633;-78
2022/06/03 06:36:59;;;;;;;5.80;4.75;;;18.80;99.90;;;;;;5086804;28;20611;-76
2022/06/03 06:39:37;;;;;;;7.05;4.55;;;18.70;99.90;;;;;;5131694;28;20047;-76
2022/06/03 06:42:28;;;;;;;4.60;4.20;;;18.80;99.90;;;;;;5131793;28;20501;-77
2022/06/03 06:45:16;;;;;;;5.95;3.95;;;18.90;99.90;;;;;;5122035;28;20070;-78
2022/06/03 06:47:54;;;;;;;4.88;4.20;;;19.10;99.90;;;;;;5135248;28;20046;-75
2022/06/03 06:50:35;;;;;;;7.72;4.13;;;19.40;99.90;;;;;;5131562;28;20047;-74
2022/06/03 06:53:48;;;;;;;4.90;4.20;;;19.50;99.90;;;;;;5133431;28;20447;-78
2022/06/03 06:56:43;;;;;;;5.45;3.92;;;19.80;99.90;;;;;;5135282;28;20056;-76
2022/06/03 06:59:31;;;;;;;5.15;4.00;;;19.90;99.90;;;;;;5134788;28;20062;-76
2022/06/03 07:02:14;;;;;;;5.90;4.00;;;20.00;99.90;;;;;;5135360;28;20709;-73
2022/06/03 07:04:55;;;;;;;4.43;3.90;;;20.00;99.90;;;;;;5134359;28;20409;-77
2022/06/03 07:07:38;;;;;;;7.40;4.13;;;20.10;99.90;;;;;;5131529;28;20583;-75
2022/06/03 07:10:22;;;;;;;5.63;4.53;;;20.10;99.90;;;;;;5133010;28;20062;-77
2022/06/03 07:13:06;;;;;;;4.75;4.00;;;20.10;99.90;;;;;;5132095;28;20054;-75
2022/06/03 07:15:58;;;;;;;6.78;4.35;;;20.10;99.90;;;;;;5133518;28;20473;-74
2022/06/03 07:22:25;;;;;;;4.53;4.07;;;20.30;99.90;;;;;;5133057;28;20061;-74
2022/06/03 07:25:11;;;;;;;4.25;3.85;;;20.40;99.90;;;;;;5168340;28;20069;-76
2022/06/03 07:27:48;;;;;;;6.72;4.30;;;20.30;99.90;;;;;;5204506;28;20079;-79
2022/06/03 07:30:40;;;;;;;6.38;3.95;;;20.50;99.90;;;;;;5134030;28;20058;-75
2022/06/03 07:33:36;;;;;;;6.57;4.30;;;20.60;99.90;;;;;;5135659;28;20054;-75
2022/06/03 07:36:13;;;;;;;3.95;3.55;;;20.80;99.90;;;;;;5170603;28;20042;-77
2022/06/03 07:38:51;;;;;;;4.50;3.92;;;21.00;99.90;;;;;;5132428;28;20165;-76
2022/06/03 07:41:31;;;;;;;5.55;4.00;;;21.20;99.90;;;;;;5135157;28;20051;-73
2022/06/03 07:44:21;;;;;;;4.95;3.78;;;21.30;99.90;;;;;;5135379;28;20046;-75
2022/06/03 07:47:00;;;;;;;3.78;3.47;;;21.50;98.80;;;;;;5137453;28;20062;-74
2022/06/03 07:49:37;;;;;;;5.90;3.67;;;21.60;97.60;;;;;;5136151;28;20062;-75
2022/06/03 07:52:32;;;;;;;5.50;3.25;;;21.80;97.40;;;;;;5136144;28;20077;-75
2022/06/03 07:55:16;;;;;;;5.85;3.58;;;21.90;95.20;;;;;;5140493;28;20046;-76
2022/06/03 07:57:56;;;;;;;8.30;3.58;;;22.00;96.20;;;;;;5136108;28;20046;-75
2022/06/03 08:00:28;;;;;;;6.43;3.75;;;22.20;94.30;;;;;;5148279;28;20520;-76
2022/06/03 08:03:19;;;;;;;3.78;3.47;;;22.40;93.40;;;;;;5132823;28;20050;-76
2022/06/03 08:05:57;;;;;;;4.85;3.50;;;22.40;93.50;;;;;;5132794;28;20065;-77
2022/06/03 08:11:32;;;;;;;5.20;3.60;;;22.50;92.50;;;;;;5137866;28;20421;-79
2022/06/03 08:14:04;;;;;;;4.40;3.88;;;22.70;91.90;;;;;;5139602;28;20049;-76
2022/06/03 08:16:43;;;;;;;4.93;4.10;;;23.00;92.60;;;;;;5114831;28;20557;-77
2022/06/03 08:19:24;;;;;;;5.28;4.03;;;23.00;92.40;;;;;;5146039;28;20047;-75
2022/06/03 08:22:00;;;;;;;5.60;3.95;;;23.00;91.00;;;;;;5137967;28;20046;-77
2022/06/03 08:24:38;;;;;;;4.30;3.78;;;23.00;91.10;;;;;;5172365;28;20496;-77
2022/06/03 08:27:23;;;;;;;6.35;4.28;;;23.10;91.40;;;;;;5136163;28;20050;-76
2022/06/03 08:30:03;;;;;;;5.80;3.83;;;23.20;91.20;;;;;;5144112;28;20426;-75
2022/06/03 08:32:46;;;;;;;5.20;3.88;;;23.30;90.80;;;;;;5163093;28;20054;-77
2022/06/03 08:35:20;;;;;;;5.15;3.70;;;23.40;88.00;;;;;;5132951;28;20066;-78
2022/06/03 08:37:59;;;;;;;3.85;3.38;;;23.40;86.00;;;;;;5139552;28;20066;-76
2022/06/03 08:41:00;;;;;;;4.05;3.65;;;23.40;85.40;;;;;;5135983;28;20442;-76
2022/06/03 08:44:07;;;;;;;5.97;3.50;;;23.40;87.60;;;;;;5139607;28;20050;-76
2022/06/03 08:46:59;;;;;;;3.85;3.22;;;23.60;87.10;;;;;;5142418;28;20094;-77
2022/06/03 08:50:00;;;;;;;7.88;3.88;;;23.70;83.40;;;;;;5166495;28;20055;-76
2022/06/03 08:53:02;;;;;;;4.20;3.42;;;23.70;82.30;;;;;;5139779;28;20502;-75
2022/06/03 08:55:51;;;;;;;4.65;3.50;;;23.80;83.30;;;;;;5140806;28;20165;-76
2022/06/03 08:58:29;;;;;;;6.15;3.58;;;23.90;81.20;;;;;;5136352;28;20046;-75
2022/06/03 09:01:13;;;;;;;3.28;2.97;;;23.90;82.20;;;;;;5133785;28;20065;-75
2022/06/03 09:03:57;;;;;;;5.47;3.53;;;24.00;81.40;;;;;;5139411;28;20071;-76
2022/06/03 09:06:46;;;;;;;3.97;3.17;;;24.10;83.50;;;;;;5142694;28;20053;-73
2022/06/03 09:09:23;;;;;;;4.15;3.30;;;24.20;81.00;;;;;;5144854;28;20085;-74
2022/06/03 09:12:16;;;;;;;4.30;3.65;;;24.20;79.60;;;;;;5139143;28;20039;-78
2022/06/03 09:14:50;;;;;;;5.93;3.40;;;24.20;78.90;;;;;;5113237;28;20081;-74
2022/06/03 09:17:25;;;;;;;3.58;3.28;;;24.20;79.50;;;;;;5140130;28;20413;-79
2022/06/03 09:20:04;;;;;;;3.75;3.35;;;24.20;78.20;;;;;;5140155;28;20038;-76
2022/06/03 09:22:37;;;;;;;3.33;3.03;;;24.30;78.50;;;;;;5134237;28;20054;-76
2022/06/03 09:25:12;;;;;;;6.80;3.25;;;24.30;77.20;;;;;;5121340;28;20548;-74
2022/06/03 09:27:48;;;;;;;3.45;2.55;;;24.30;75.80;;;;;;5134391;28;20510;-75
2022/06/03 09:30:31;;;;;;;3.30;2.95;;;24.30;74.50;;;;;;5136142;28;20398;-75
2022/06/03 09:33:06;;;;;;;;;;;24.30;74.70;;;;;;5135809;28;20444;-74
2022/06/03 09:35:41;;;;;;;5.00;2.92;;;24.30;72.00;;;;;;5146621;28;19926;-76
2022/06/03 09:38:16;;;;;;;3.40;3.10;;;24.40;74.60;;;;;;5138583;28;20051;-75
2022/06/03 09:40:50;;;;;;;4.43;3.47;;;24.40;74.10;;;;;;5132690;28;20047;-75
2022/06/03 09:43:31;;;;;;;6.28;3.13;;;24.50;75.20;;;;;;5132665;28;20051;-75
2022/06/03 09:46:08;;;;;;;5.15;3.35;;;24.60;75.10;;;;;;5134663;28;20035;-74
2022/06/03 09:48:42;;;;;;;4.57;2.92;;;24.60;74.30;;;;;;5138253;28;20689;-74
2022/06/03 09:51:55;;;;;;;4.47;3.92;;;24.60;75.40;;;;;;5135161;28;20662;-76
2022/06/03 09:54:41;;;;;;;7.13;3.78;;;24.70;73.20;;;;;;5143599;28;20054;-77
2022/06/03 09:57:31;;;;;;;6.22;3.97;;;24.70;74.00;;;;;;5134566;28;20054;-74
2022/06/03 10:00:12;;;;;;;6.65;4.03;;;24.70;75.30;;;;;;5145177;28;20044;-74
2022/06/03 10:02:45;;;;;;;7.07;4.32;;;24.70;75.90;;;;;;5131364;28;20899;-76
2022/06/03 10:05:19;;;;;;;4.65;4.15;;;24.90;75.90;;;;;;5145368;28;20039;-76
2022/06/03 10:07:59;;;;;;;6.50;4.28;;;24.80;75.00;;;;;;5114795;28;20058;-76
2022/06/03 10:13:24;;;;;;;8.02;4.40;;;25.00;76.00;;;;;;5132974;28;21470;-74
2022/06/03 10:15:59;;;;;;;4.88;4.18;;;25.10;75.80;;;;;;5132504;28;20044;-74
2022/06/03 10:18:41;;;;;;;7.82;3.85;;;25.20;76.70;;;;;;5133100;28;20753;-77
2022/06/03 10:21:16;;;;;;;4.72;4.32;;;25.50;76.50;;;;;;5133042;28;20399;-78
2022/06/03 10:23:52;;;;;;;4.93;3.78;;;25.70;72.90;;;;;;5170272;28;20474;-75
2022/06/03 10:26:30;;;;;;;9.27;3.90;;;25.90;73.50;;;;;;5127409;28;20054;-75
2022/06/03 10:29:15;;;;;;;4.70;4.03;;;26.00;71.60;;;;;;5133343;28;20081;-75
2022/06/03 10:31:58;;;;;;;4.50;3.90;;;26.30;69.60;;;;;;5137466;28;20039;-75
2022/06/03 10:34:36;;;;;;;7.15;3.90;;;26.70;71.50;;;;;;5149942;28;20065;-76
2022/06/03 10:37:14;;;;;;;5.63;4.00;;;26.90;71.40;;;;;;5133643;28;20046;-79
2022/06/03 10:39:47;;;;;;;6.03;3.65;;;27.20;70.30;;;;;;5135141;28;20152;-74
2022/06/03 10:42:22;;;;;;;5.60;3.75;;;27.50;70.20;;;;;;5133203;28;20065;-76
2022/06/03 10:44:56;;;;;;;7.25;3.95;;;27.60;68.40;;;;;;5142937;28;20066;-76
2022/06/03 10:47:35;;;;;;;5.93;4.18;;;27.70;67.40;;;;;;5127729;28;20474;-78
2022/06/03 10:50:27;;;;;;;3.63;3.33;;;27.90;67.10;;;;;;5137504;28;20043;-78
2022/06/03 11:02:03;;;;;;;5.23;3.63;;;28.60;64.50;;;;;;5134686;28;20051;-76
2022/06/03 11:04:39;;;;;;;4.72;3.60;;;28.80;63.30;;;;;;5131719;28;20060;-77
2022/06/03 11:07:30;;;;;;;3.50;3.08;;;28.70;62.60;;;;;;5135017;28;20520;-76
2022/06/03 11:10:08;;;;;;;3.78;3.30;;;28.60;61.20;;;;;;5131789;28;20053;-76
2022/06/03 11:13:02;;;;;;;3.55;3.20;;;28.60;61.40;;;;;;5139479;28;20062;-74
2022/06/03 11:15:42;;;;;;;4.85;3.10;;;28.70;60.20;;;;;;5135157;28;20054;-77
2022/06/03 11:18:21;;;;;;;3.40;3.10;;;29.00;60.00;;;;;;5141398;28;20368;-78
2022/06/03 11:20:54;;;;;;;4.72;3.30;;;29.10;59.90;;;;;;5142382;28;20736;-77
2022/06/03 11:23:26;;;;;;;4.25;3.00;;;29.20;60.50;;;;;;5121911;28;20046;-75
2022/06/03 11:26:02;;;;;;;3.73;3.37;;;29.20;59.80;;;;;;5147784;28;20054;-76
2022/06/03 11:28:44;;;;;;;4.05;3.38;;;29.60;60.60;;;;;;5134154;28;20552;-77
2022/06/03 11:31:30;;;;;;;3.22;2.92;;;29.60;57.60;;;;;;5140920;28;20051;-77
2022/06/03 11:34:29;;;;;;;4.75;3.22;;;29.60;59.50;;;;;;5134114;28;20609;-76
2022/06/03 11:37:08;;;;;;;4.40;3.03;;;29.90;57.00;;;;;;5139016;28;20469;-79
2022/06/03 11:39:48;;;;;;;4.13;3.60;;;30.00;57.10;;;;;;5133641;28;20046;-79
2022/06/03 11:42:43;;;;;;;4.05;3.33;;;30.30;57.50;;;;;;5134402;28;20082;-76
2022/06/03 11:45:19;;;;;;;4.85;3.20;;;30.20;55.90;;;;;;5136726;28;20050;-76
2022/06/03 11:48:17;;;;;;;3.53;3.22;;;30.10;56.80;;;;;;5147241;28;20046;-77
2022/06/03 11:50:51;;;;;;;5.88;3.20;;;30.00;56.30;;;;;;5139258;28;21004;-75
2022/06/03 11:53:27;;;;;;;3.22;2.85;;;30.10;56.30;;;;;;5139598;28;20573;-77
2022/06/03 11:56:03;;;;;;;7.53;3.13;;;30.30;56.00;;;;;;5141666;28;20099;-76
2022/06/03 11:58:47;;;;;;;4.78;3.20;;;30.50;55.50;;;;;;5141179;28;20089;-78
2022/06/03 12:01:23;;;;;;;3.10;2.60;;;30.50;54.50;;;;;;5141380;28;20061;-77
2022/06/03 12:04:17;;;;;;;3.40;3.10;;;30.30;54.70;;;;;;5140111;28;20062;-75
2022/06/03 12:06:55;;;;;;;6.82;3.42;;;30.60;55.00;;;;;;5186248;28;20066;-75
2022/06/03 12:09:55;;;;;;;4.22;2.80;;;30.50;56.20;;;;;;5136188;28;20427;-75
2022/06/03 12:16:10;;;;;;;3.78;3.38;;;30.70;55.60;;;;;;5136858;28;20062;-75
2022/06/03 12:19:04;;;;;;;4.93;3.58;;;30.50;56.80;;;;;;5125996;28;20050;-78
2022/06/03 12:21:38;;;;;;;4.25;3.55;;;30.10;57.60;;;;;;5135518;28;20055;-76
2022/06/03 12:24:38;;;;;;;4.35;3.40;;;30.10;59.10;;;;;;5150885;28;20042;-77
2022/06/03 12:27:38;;;;;;;3.38;3.08;;;30.10;60.00;;;;;;5134621;28;20047;-75
2022/06/03 12:30:14;;;;;;;3.97;3.63;;;30.20;58.80;;;;;;5154087;28;20046;-75
2022/06/03 12:33:03;;;;;;;9.18;4.13;;;30.20;58.60;;;;;;5131474;28;20046;-75
2022/06/03 12:35:48;;;;;;;5.13;3.70;;;29.90;59.20;;;;;;5139198;28;20050;-75
2022/06/03 12:38:21;;;;;;;4.05;3.53;;;29.70;59.40;;;;;;5138457;28;20058;-76
2022/06/03 12:40:57;;;;;;;3.92;2.92;;;29.50;59.50;;;;;;5136893;28;20043;-75
2022/06/03 12:43:29;;;;;;;3.92;3.22;;;29.30;60.30;;;;;;5143737;28;20051;-76
2022/06/03 12:46:03;;;;;;;5.82;3.20;;;29.20;59.60;;;;;;5135717;28;20493;-74
2022/06/03 12:48:48;;;;;;;4.28;3.08;;;29.00;59.50;;;;;;5137450;28;20831;-74
2022/06/03 12:51:25;;;;;;;6.93;3.47;;;28.90;58.80;;;;;;5136388;28;20054;-75
2022/06/03 12:54:02;;;;;;;5.53;2.95;;;28.90;59.00;;;;;;5132673;28;20058;-74
2022/06/03 12:57:03;;;;;;;4.03;3.05;;;28.80;58.10;;;;;;5137615;28;20081;-74
2022/06/03 12:59:47;;;;;;;8.10;3.10;;;28.70;58.10;;;;;;5137663;28;20081;-76
2022/06/03 13:02:27;;;;;;;3.75;2.90;;;28.50;58.00;;;;;;5133577;28;20057;-74
2022/06/03 13:05:10;;;;;;;8.73;3.55;;;28.40;59.20;;;;;;5138029;28;20065;-77
2022/06/03 13:07:58;;;;;;;3.05;2.72;;;28.20;60.40;;;;;;5135386;28;20051;-78
2022/06/03 13:10:59;;;;;;;3.60;3.30;;;28.10;60.50;;;;;;5134447;28;20050;-76
2022/06/03 13:13:34;;;;;;;4.78;3.50;;;28.00;61.90;;;;;;5135858;28;20047;-77
2022/06/03 13:16:31;;;;;;;6.03;3.58;;;27.90;63.00;;;;;;5138072;28;20053;-75
2022/06/03 13:19:20;;;;;;;4.50;3.30;;;27.70;63.30;;;;;;5136295;28;20433;-77
2022/06/03 13:22:02;;;;;;;4.45;3.42;;;27.60;63.70;;;;;;5136871;28;20059;-75
2022/06/03 13:24:36;;;;;;;5.45;3.90;;;27.50;63.70;;;;;;5142631;28;20057;-74
2022/06/03 13:27:22;;;;;;;5.07;3.97;;;27.40;64.50;;;;;;5136552;28;20046;-76
2022/06/03 13:29:56;;;;;;;5.63;3.65;;;27.40;64.60;;;;;;5136928;28;20453;-76
2022/06/03 13:32:35;;;;;;;3.88;3.58;;;27.30;64.80;;;;;;5134215;28;20073;-77
2022/06/03 13:35:20;;;;;;;5.30;3.85;;;27.20;63.70;;;;;;5129448;28;20494;-75
2022/06/03 13:37:57;;;;;;;5.85;3.53;;;27.10;65.20;;;;;;5135346;28;20509;-78
2022/06/03 13:40:34;;;;;;;4.70;3.60;;;27.20;64.70;;;;;;5136507;28;20506;-75
2022/06/03 13:43:21;;;;;;;5.55;3.53;;;27.10;65.50;;;;;;5136284;28;20050;-79
2022/06/03 13:45:56;;;;;;;5.88;4.10;;;27.10;65.40;;;;;;5135022;28;20066;-77
2022/06/03 13:48:38;;;;;;;4.80;4.10;;;27.00;66.30;;;;;;5177205;28;20065;-75
2022/06/03 13:51:30;;;;;;;10.30;4.00;;;26.90;66.60;;;;;;5127553;28;20050;-76
2022/06/03 13:54:21;;;;;;;5.70;4.38;;;26.80;67.70;;;;;;5136042;28;20508;-77
2022/06/03 13:57:02;;;;;;;4.75;4.22;;;26.70;68.40;;;;;;5119639;28;20058;-75
2022/06/03 13:59:40;;;;;;;5.32;4.53;;;26.60;68.90;;;;;;5140063;28;20046;-76
2022/06/03 14:02:34;;;;;;;7.18;4.60;;;26.60;68.70;;;;;;5142493;28;20303;-77
2022/06/03 14:05:14;;;;;;;7.38;4.15;;;26.60;69.10;;;;;;5141065;28;20552;-74
2022/06/03 14:08:01;;;;;;;5.43;3.75;;;26.50;69.10;;;;;;5158034;28;21005;-75
2022/06/03 14:10:45;;;;;;;7.43;3.70;;;26.50;68.30;;;;;;5137948;28;20058;-76
2022/06/03 14:13:29;;;;;;;4.78;4.00;;;26.50;68.30;;;;;;5202351;28;20042;-79
2022/06/03 14:16:33;;;;;;;8.07;3.88;;;26.50;68.60;;;;;;5139739;28;20333;-75
2022/06/03 14:19:09;;;;;;;6.68;4.40;;;26.40;68.40;;;;;;5209363;28;20055;-76
2022/06/03 14:21:56;;;;;;;7.10;4.28;;;26.30;69.20;;;;;;5141012;28;20057;-76
2022/06/03 14:24:36;;;;;;;;;;;26.30;70.10;;;;;;5141878;28;20039;-76
2022/06/03 14:27:18;;;;;;;6.50;4.43;;;26.20;70.50;;;;;;5154951;28;20063;-75
2022/06/03 14:30:19;;;;;;;4.93;4.25;;;26.10;70.80;;;;;;5138520;28;20047;-78
2022/06/03 14:32:56;;;;;;;7.63;4.90;;;26.10;71.00;;;;;;5134817;28;20054;-75
2022/06/03 14:35:33;;;;;;;7.00;4.40;;;26.00;71.40;;;;;;5137388;28;20280;-76
2022/06/03 14:38:06;;;;;;;4.95;4.45;;;26.00;72.30;;;;;;5141231;28;20051;-78
2022/06/03 14:40:42;;;;;;;7.57;4.53;;;26.00;71.90;;;;;;5206702;28;20072;-74
2022/06/03 14:43:19;;;;;;;5.38;4.45;;;25.90;72.10;;;;;;5139122;28;20051;-75
2022/06/03 14:45:58;;;;;;;5.88;4.75;;;25.90;72.10;;;;;;5137920;28;22348;-76
2022/06/03 14:48:47;;;;;;;5.25;4.70;;;25.80;72.90;;;;;;5163154;28;20081;-77
2022/06/03 14:51:35;;;;;;;5.78;5.22;;;25.80;73.40;;;;;;5138379;28;20058;-75
2022/06/03 14:54:25;;;;;;;7.38;5.10;;;25.60;74.30;;;;;;5198620;28;20045;-76
2022/06/03 14:57:02;;;;;;;9.05;5.13;;;25.60;74.60;;;;;;5110307;28;20042;-78
2022/06/03 15:00:08;;;;;;;8.20;5.07;;;25.50;75.90;;;;;;5146160;28;20057;-75